Time;durP1;ratioP1;P1;durP2;ratioP2;P2;SDS_P1;SDS_P2;PMS_P1;PMS_P2;Temp;Humidity;BMP_temperature;BMP_pressure;BME280_temperature;BME280_humidity;BME280_pressure;Samples;Min_cycle;Max_cycle;Signal;HPM_P1;HPM_P2
2023/05/08 00:01:52;;;;;;;9.65;5.68;;;;;;;15.66;100.00;99312.59;5058776;28;20031;-81
2023/05/08 00:04:36;;;;;;;12.07;6.18;;;;;;;15.69;100.00;99317.44;5059973;28;20452;-81
2023/05/08 00:07:20;;;;;;;11.05;6.63;;;;;;;15.73;100.00;99315.16;5054702;28;20375;-79
2023/05/08 00:10:05;;;;;;;11.23;6.22;;;;;;;15.82;100.00;99322.56;5059982;28;20398;-79
2023/05/08 00:12:49;;;;;;;11.20;6.60;;;;;;;15.92;100.00;99318.63;5060296;28;20505;-81
2023/05/08 00:15:35;;;;;;;11.90;6.90;;;;;;;15.90;100.00;99323.31;5056119;28;20102;-80
2023/05/08 00:18:19;;;;;;;10.77;7.57;;;;;;;15.92;100.00;99316.78;5058735;28;20044;-80
2023/05/08 00:21:04;;;;;;;15.05;7.18;;;;;;;15.90;100.00;99310.09;5061116;28;20043;-82
2023/05/08 00:23:48;;;;;;;12.10;7.32;;;;;;;15.90;100.00;99310.09;5059426;28;20093;-82
2023/05/08 00:26:33;;;;;;;13.65;7.22;;;;;;;15.90;100.00;99302.16;5063427;28;20087;-81
2023/05/08 00:29:17;;;;;;;11.35;6.63;;;;;;;15.82;100.00;99301.41;5059394;28;20094;-79
2023/05/08 00:32:01;;;;;;;13.02;6.93;;;;;;;15.83;100.00;99303.00;5060331;28;20114;-81
2023/05/08 00:34:48;;;;;;;12.73;7.05;;;;;;;15.73;100.00;99296.63;5060666;28;20422;-81
2023/05/08 00:37:39;;;;;;;10.40;6.78;;;;;;;15.77;100.00;99298.63;5057251;28;20067;-81
2023/05/08 00:40:24;;;;;;;13.73;6.97;;;;;;;15.80;100.00;99302.63;5058646;28;20503;-82
2023/05/08 00:43:09;;;;;;;15.18;6.35;;;;;;;15.93;100.00;99307.03;5057774;28;20129;-80
2023/05/08 00:46:00;;;;;;;9.15;5.15;;;;;;;15.95;100.00;99305.75;5057309;28;20505;-83
2023/05/08 00:48:45;;;;;;;8.15;5.25;;;;;;;15.85;100.00;99308.09;5053979;28;20558;-82
2023/05/08 00:51:30;;;;;;;10.90;4.97;;;;;;;15.90;100.00;99302.16;5057620;28;20442;-83
2023/05/08 00:54:16;;;;;;;7.90;5.05;;;;;;;15.91;100.00;99303.75;5058386;28;20094;-84
2023/05/08 00:57:00;;;;;;;5.47;4.25;;;;;;;15.88;100.00;99290.94;5058198;28;20048;-82
2023/05/08 00:59:45;;;;;;;6.30;4.35;;;;;;;15.84;100.00;99288.75;5055863;28;20526;-79
2023/05/08 01:02:30;;;;;;;8.60;4.47;;;;;;;16.09;100.00;99289.69;5061717;28;20394;-80
2023/05/08 01:05:15;;;;;;;7.47;4.65;;;;;;;16.03;100.00;99294.03;5060191;28;20043;-82
2023/05/08 01:07:59;;;;;;;9.32;5.10;;;;;;;15.99;100.00;99287.59;5057400;28;20048;-81
2023/05/08 01:10:53;;;;;;;9.90;5.45;;;;;;;15.84;100.00;99294.03;5059611;28;20426;-80
2023/05/08 01:13:55;;;;;;;9.18;5.28;;;;;;;15.80;100.00;99284.94;5059195;28;20075;-79
2023/05/08 01:16:48;;;;;;;10.32;5.20;;;;;;;15.66;100.00;99286.94;5058593;28;20043;-80
2023/05/08 01:19:59;;;;;;;7.23;4.50;;;;;;;15.48;100.00;99285.09;5055784;28;20043;-83
2023/05/08 01:23:02;;;;;;;9.95;4.90;;;;;;;15.23;100.00;99282.50;5064078;28;20187;-81
2023/05/08 01:26:13;;;;;;;5.30;3.83;;;;;;;15.09;100.00;99287.13;5057450;28;20757;-83
2023/05/08 01:29:36;;;;;;;7.22;4.72;;;;;;;14.96;100.00;99283.59;5058265;28;20473;-83
2023/05/08 01:32:41;;;;;;;7.70;4.45;;;;;;;14.94;100.00;99268.97;5044031;28;20058;-79
2023/05/08 01:35:31;;;;;;;9.68;4.07;;;;;;;14.89;100.00;99263.53;5057260;28;20501;-80
2023/05/08 01:38:33;;;;;;;8.00;3.67;;;;;;;14.83;100.00;99263.34;5057391;28;20150;-80
2023/05/08 01:41:25;;;;;;;6.95;3.15;;;;;;;14.66;100.00;99262.28;5057521;28;20036;-79
2023/05/08 01:44:13;;;;;;;8.35;4.15;;;;;;;14.96;100.00;99258.97;5053717;28;20552;-80
2023/05/08 01:47:01;;;;;;;8.60;3.58;;;;;;;15.10;100.00;99251.72;5059791;28;20035;-78
2023/05/08 01:49:49;;;;;;;5.55;4.15;;;;;;;14.84;100.00;99259.72;5059569;28;20047;-79
2023/05/08 01:52:47;;;;;;;6.32;3.00;;;;;;;14.90;100.00;99258.00;5063329;28;20047;-82
2023/05/08 01:55:35;;;;;;;5.28;3.40;;;;;;;14.89;100.00;99264.31;5062336;28;20144;-78
2023/05/08 01:58:22;;;;;;;4.68;3.25;;;;;;;15.01;100.00;99258.34;5061591;28;20036;-82
2023/05/08 02:01:07;;;;;;;5.57;3.63;;;;;;;14.88;100.00;99261.91;5062554;28;20040;-81
2023/05/08 02:03:53;;;;;;;8.15;3.42;;;;;;;14.86;100.00;99251.53;5062489;28;20081;-80
2023/05/08 02:06:38;;;;;;;5.00;3.13;;;;;;;15.07;100.00;99242.41;5059904;28;20048;-79
2023/05/08 02:09:24;;;;;;;6.88;3.15;;;;;;;15.05;100.00;99244.47;5058602;28;20040;-79
2023/05/08 02:12:09;;;;;;;9.40;3.42;;;;;;;14.95;100.00;99250.25;5061328;28;20128;-79
2023/05/08 02:14:54;;;;;;;6.88;3.50;;;;;;;14.90;100.00;99247.44;5060436;28;20125;-79
2023/05/08 02:17:40;;;;;;;5.45;3.60;;;;;;;14.70;100.00;99250.25;5065829;28;20067;-80
2023/05/08 02:20:27;;;;;;;7.28;3.65;;;;;;;14.67;100.00;99263.88;5064495;28;20035;-79
2023/05/08 02:23:12;;;;;;;5.13;3.38;;;;;;;14.51;100.00;99252.00;5061368;28;20545;-78
2023/05/08 02:25:58;;;;;;;5.13;3.45;;;;;;;14.52;100.00;99246.53;5064125;28;20052;-79
2023/05/08 02:28:43;;;;;;;7.38;3.42;;;;;;;14.49;100.00;99252.25;5063082;28;20056;-79
2023/05/08 02:31:28;;;;;;;4.68;3.45;;;;;;;14.39;100.00;99247.44;5062610;28;20052;-79
2023/05/08 02:34:14;;;;;;;7.18;3.60;;;;;;;14.41;100.00;99250.66;5057284;28;20044;-79
2023/05/08 02:36:59;;;;;;;6.18;3.53;;;;;;;14.34;100.00;99255.16;5055010;28;20047;-78
2023/05/08 02:39:46;;;;;;;6.97;3.70;;;;;;;14.26;100.00;99252.78;5063856;28;20110;-79
2023/05/08 02:42:30;;;;;;;12.05;3.85;;;;;;;14.25;100.00;99248.53;5060148;28;20039;-81
2023/05/08 02:45:14;;;;;;;7.22;3.40;;;;;;;14.14;100.00;99240.25;5060559;28;20043;-79
2023/05/08 02:48:08;;;;;;;;;;;;;;;14.22;100.00;99236.56;5055458;28;20548;-79
2023/05/08 02:51:24;;;;;;;5.82;3.38;;;;;;;14.13;100.00;99243.94;5053556;28;19919;-79
2023/05/08 02:54:13;;;;;;;3.58;2.90;;;;;;;14.10;100.00;99227.72;5056758;28;20106;-80
2023/05/08 02:57:02;;;;;;;6.90;3.15;;;;;;;14.05;100.00;99225.72;5060277;28;20063;-79
2023/05/08 02:59:58;;;;;;;5.45;3.17;;;;;;;14.04;100.00;99225.91;5058972;28;20457;-79
2023/05/08 03:02:54;;;;;;;5.18;3.03;;;;;;;14.02;100.00;99220.88;5060160;28;20122;-79
2023/05/08 03:05:44;;;;;;;3.97;2.67;;;;;;;14.04;100.00;99224.09;5059542;28;20056;-79
2023/05/08 03:08:39;;;;;;;6.55;3.25;;;;;;;14.08;100.00;99220.00;5058927;28;20463;-79
2023/05/08 03:11:28;;;;;;;5.28;3.35;;;;;;;14.18;100.00;99229.31;5055947;28;20122;-78
2023/05/08 03:14:18;;;;;;;7.25;2.80;;;;;;;14.08;100.00;99220.00;5057561;28;20183;-78
2023/05/08 03:17:06;;;;;;;8.88;3.30;;;;;;;14.10;100.00;99223.25;5058135;28;20067;-79
2023/05/08 03:19:56;;;;;;;5.00;2.65;;;;;;;14.06;100.00;99216.78;5060845;28;20102;-79
2023/05/08 03:22:42;;;;;;;5.85;2.83;;;;;;;14.11;100.00;99216.94;5060478;28;20044;-79
2023/05/08 03:25:28;;;;;;;7.85;2.70;;;;;;;14.09;100.00;99221.63;5056140;28;20376;-80
2023/05/08 03:28:14;;;;;;;5.85;3.00;;;;;;;14.03;100.00;99219.84;5060348;28;20043;-79
2023/05/08 03:30:59;;;;;;;5.65;2.90;;;;;;;14.05;100.00;99209.88;5057989;28;20095;-80
2023/05/08 03:33:44;;;;;;;7.20;2.63;;;;;;;14.17;100.00;99198.66;5055774;28;20521;-80
2023/05/08 03:36:30;;;;;;;7.60;3.03;;;;;;;14.11;100.00;99203.75;5056642;28;20528;-81
2023/05/08 03:39:14;;;;;;;4.20;2.70;;;;;;;14.13;100.00;99201.69;5054961;28;20051;-80
2023/05/08 03:41:59;;;;;;;5.78;2.90;;;;;;;14.25;100.00;99201.84;5056009;28;20059;-81
2023/05/08 03:44:44;;;;;;;6.82;2.80;;;;;;;14.27;100.00;99191.03;5057307;28;20044;-80
2023/05/08 03:47:29;;;;;;;9.57;3.28;;;;;;;14.12;100.00;99196.66;5061044;28;20048;-81
2023/05/08 03:50:14;;;;;;;7.60;2.70;;;;;;;14.26;100.00;99186.78;5056294;28;20052;-80
2023/05/08 03:52:58;;;;;;;6.38;2.88;;;;;;;14.28;100.00;99192.66;5059540;28;20129;-81
2023/05/08 03:55:42;;;;;;;7.00;3.20;;;;;;;14.27;100.00;99188.41;5061112;28;20051;-81
2023/05/08 03:58:49;;;;;;;6.22;2.72;;;;;;;14.33;100.00;99184.91;5062634;28;20040;-80
2023/05/08 04:01:47;;;;;;;7.65;3.20;;;;;;;14.27;100.00;99186.59;5062168;28;20048;-80
2023/05/08 04:04:44;;;;;;;8.40;3.20;;;;;;;14.25;100.00;99179.91;5057383;28;20450;-81
2023/05/08 04:07:41;;;;;;;9.20;2.80;;;;;;;14.10;100.00;99173.09;5057743;28;20126;-81
2023/05/08 04:10:32;;;;;;;10.38;2.90;;;;;;;14.23;100.00;99176.66;5054043;28;20099;-81
2023/05/08 04:13:24;;;;;;;5.40;2.53;;;;;;;14.27;100.00;99178.66;5061897;28;20102;-80
2023/05/08 04:16:16;;;;;;;4.57;3.15;;;;;;;14.22;100.00;99172.41;5055640;28;20080;-79
2023/05/08 04:19:09;;;;;;;6.60;3.22;;;;;;;14.25;100.00;99174.63;5060025;28;20593;-79
2023/05/08 04:21:57;;;;;;;6.33;2.80;;;;;;;14.13;100.00;99170.00;5062429;28;20042;-79
2023/05/08 04:24:45;;;;;;;4.55;2.83;;;;;;;14.26;100.00;99168.31;5054359;28;20082;-80
2023/05/08 04:27:30;;;;;;;4.63;3.13;;;;;;;14.28;100.00;99177.66;5062983;28;20083;-79
2023/05/08 04:30:15;;;;;;;5.07;3.38;;;;;;;14.26;100.00;99153.28;5060433;28;20039;-79
2023/05/08 04:33:02;;;;;;;6.68;2.92;;;;;;;14.34;100.00;99168.03;5067444;28;20398;-80
2023/05/08 04:35:47;;;;;;;6.15;3.40;;;;;;;14.33;100.00;99169.06;5060468;28;20063;-79
2023/05/08 04:38:35;;;;;;;5.82;3.42;;;;;;;14.29;100.00;99170.50;5058458;28;20043;-80
2023/05/08 04:41:20;;;;;;;4.18;3.22;;;;;;;14.33;100.00;99162.97;5057876;28;20391;-79
2023/05/08 04:44:04;;;;;;;10.13;3.25;;;;;;;14.27;100.00;99156.72;5061535;28;20505;-79
2023/05/08 04:46:49;;;;;;;6.78;3.17;;;;;;;14.33;100.00;99158.50;5055339;28;20059;-79
2023/05/08 04:49:33;;;;;;;4.90;3.47;;;;;;;14.39;100.00;99159.47;5060286;28;20054;-79
2023/05/08 04:52:17;;;;;;;11.45;3.67;;;;;;;14.41;100.00;99160.06;5061865;28;20494;-79
2023/05/08 04:55:01;;;;;;;10.10;3.97;;;;;;;14.75;100.00;99163.22;5064148;28;20044;-79
2023/05/08 04:57:45;;;;;;;9.70;3.95;;;;;;;14.74;100.00;99163.44;5066831;28;20946;-80
2023/05/08 05:00:29;;;;;;;7.95;4.00;;;;;;;14.83;100.00;99160.28;5058554;28;20055;-79
2023/05/08 05:03:13;;;;;;;9.52;4.13;;;;;;;14.63;100.00;99152.53;5061881;28;20417;-79
2023/05/08 05:05:59;;;;;;;5.68;3.40;;;;;;;14.76;100.00;99153.47;5063323;28;20048;-80
2023/05/08 05:08:43;;;;;;;6.50;4.10;;;;;;;14.89;100.00;99155.97;5059134;28;20063;-79
2023/05/08 05:11:27;;;;;;;7.35;3.58;;;;;;;15.08;100.00;99154.16;5064003;28;20085;-79
2023/05/08 05:14:11;;;;;;;8.70;3.60;;;;;;;15.13;100.00;99156.94;5063968;28;20039;-79
2023/05/08 05:16:55;;;;;;;6.00;3.90;;;;;;;15.17;100.00;99153.84;5062214;28;20090;-80
2023/05/08 05:19:39;;;;;;;7.72;4.47;;;;;;;15.06;100.00;99161.50;5063284;28;20051;-79
2023/05/08 05:22:23;;;;;;;7.35;3.78;;;;;;;15.14;100.00;99155.91;5062702;28;20048;-79
2023/05/08 05:25:07;;;;;;;7.95;3.95;;;;;;;15.14;100.00;99150.59;5063903;28;20394;-79
2023/05/08 05:27:51;;;;;;;8.60;4.45;;;;;;;15.21;100.00;99153.19;5059178;28;20530;-80
2023/05/08 05:30:35;;;;;;;9.18;4.70;;;;;;;15.18;100.00;99147.50;5058040;28;20489;-80
2023/05/08 05:33:19;;;;;;;15.48;4.30;;;;;;;15.26;100.00;99166.53;5064965;28;20449;-80
2023/05/08 05:36:04;;;;;;;8.85;5.13;;;;;;;15.37;100.00;99151.75;5059976;28;20505;-80
2023/05/08 05:38:48;;;;;;;9.50;4.53;;;;;;;15.54;100.00;99151.97;5053433;28;20110;-80
2023/05/08 05:41:33;;;;;;;7.07;4.50;;;;;;;15.57;100.00;99155.97;5062600;28;20057;-80
2023/05/08 05:44:17;;;;;;;7.55;4.78;;;;;;;15.48;100.00;99154.69;5061292;28;20123;-82
2023/05/08 05:47:03;;;;;;;13.52;4.75;;;;;;;15.44;100.00;99164.91;5058902;28;20442;-81
2023/05/08 05:49:48;;;;;;;10.02;4.75;;;;;;;15.38;100.00;99156.00;5058361;28;20780;-79
2023/05/08 05:52:32;;;;;;;10.02;5.05;;;;;;;15.41;100.00;99154.75;5064995;28;20048;-79
2023/05/08 05:55:16;;;;;;;10.32;4.88;;;;;;;15.55;100.00;99153.56;5060036;28;20052;-78
2023/05/08 05:58:03;;;;;;;7.65;4.82;;;;;;;15.38;100.00;99155.22;5057195;28;20052;-79
2023/05/08 06:00:53;;;;;;;8.73;4.70;;;;;;;15.34;100.00;99144.25;5060705;28;20433;-78
2023/05/08 06:03:37;;;;;;;10.27;5.65;;;;;;;15.65;100.00;99152.22;5057449;28;20071;-79
2023/05/08 06:06:21;;;;;;;9.35;5.35;;;;;;;15.80;100.00;99152.59;5064482;28;20498;-79
2023/05/08 06:09:11;;;;;;;8.95;4.57;;;;;;;15.87;100.00;99154.34;5066501;28;20106;-79
2023/05/08 06:11:55;;;;;;;7.28;4.40;;;;;;;15.91;100.00;99147.59;5062701;28;20078;-79
2023/05/08 06:14:39;;;;;;;9.50;4.80;;;;;;;15.90;100.00;99161.84;5059000;28;20044;-78
2023/05/08 06:17:23;;;;;;;14.05;4.70;;;;;;;15.92;100.00;99157.16;5063176;28;20048;-78
2023/05/08 06:20:08;;;;;;;8.82;4.72;;;;;;;16.04;100.00;99149.25;5063646;28;20086;-79
2023/05/08 06:22:58;;;;;;;11.18;4.68;;;;;;;15.79;100.00;99144.88;5058944;28;20098;-80
2023/05/08 06:25:42;;;;;;;8.30;4.55;;;;;;;16.03;100.00;99147.63;5062504;28;20514;-79
2023/05/08 06:28:26;;;;;;;10.02;4.30;;;;;;;16.15;100.00;99150.28;5059785;28;20461;-79
2023/05/08 06:31:10;;;;;;;6.93;5.22;;;;;;;16.02;100.00;99146.03;5058398;28;20166;-79
2023/05/08 06:33:55;;;;;;;11.27;5.57;;;;;;;16.01;100.00;99145.19;5058034;28;20132;-80
2023/05/08 06:36:39;;;;;;;9.60;4.82;;;;;;;15.96;100.00;99139.78;5062701;28;20079;-80
2023/05/08 06:39:22;;;;;;;10.45;5.43;;;;;;;15.84;100.00;99137.09;5057764;28;20051;-80
2023/05/08 06:42:07;;;;;;;9.07;5.57;;;;;;;15.91;100.00;99137.81;5061944;28;20059;-79
2023/05/08 06:44:52;;;;;;;9.00;5.25;;;;;;;15.94;100.00;99144.50;5062060;28;20123;-79
2023/05/08 06:47:36;;;;;;;10.02;4.95;;;;;;;16.05;100.00;99140.25;5061339;28;20653;-78
2023/05/08 06:50:21;;;;;;;10.60;5.57;;;;;;;16.01;100.00;99141.72;5054514;28;20454;-78
2023/05/08 06:53:06;;;;;;;11.57;5.05;;;;;;;16.25;100.00;99145.22;5061085;28;20097;-79
2023/05/08 06:55:50;;;;;;;7.97;4.85;;;;;;;16.21;100.00;99144.06;5063540;28;20038;-78
2023/05/08 06:58:35;;;;;;;9.35;4.85;;;;;;;15.91;100.00;99145.75;5063565;28;20166;-80
2023/05/08 07:01:22;;;;;;;6.38;3.78;;;;;;;16.21;100.00;99144.06;5064672;28;20452;-80
2023/05/08 07:04:06;;;;;;;8.15;4.45;;;;;;;16.16;100.00;99146.59;5056688;28;20048;-79
2023/05/08 07:06:50;;;;;;;6.18;4.03;;;;;;;16.15;100.00;99135.19;5060104;28;20097;-79
2023/05/08 07:09:34;;;;;;;10.07;4.60;;;;;;;16.19;100.00;99130.25;5060819;28;20110;-78
2023/05/08 07:12:18;;;;;;;9.32;5.00;;;;;;;16.21;100.00;99133.47;5059595;28;20090;-78
2023/05/08 07:15:03;;;;;;;9.77;5.28;;;;;;;16.04;100.00;99128.06;5064299;28;20048;-79
2023/05/08 07:17:46;;;;;;;11.70;5.47;;;;;;;16.15;100.00;99129.91;5058464;28;20036;-80
2023/05/08 07:20:30;;;;;;;8.52;5.55;;;;;;;16.33;100.00;99136.94;5058232;28;20090;-79
2023/05/08 07:23:15;;;;;;;8.25;5.20;;;;;;;16.19;100.00;99124.97;5065595;28;20044;-83
2023/05/08 07:25:59;;;;;;;8.07;5.43;;;;;;;15.98;100.00;99129.78;5056484;28;20501;-82
2023/05/08 07:28:43;;;;;;;11.15;6.20;;;;;;;16.03;100.00;99129.09;5055232;28;20194;-80
2023/05/08 07:31:27;;;;;;;12.40;5.85;;;;;;;16.08;100.00;99124.72;5053192;28;20048;-82
2023/05/08 07:34:11;;;;;;;10.18;6.00;;;;;;;16.10;100.00;99119.19;5049941;28;20055;-83
2023/05/08 07:36:55;;;;;;;9.35;6.20;;;;;;;16.04;100.00;99123.56;5057074;28;21090;-82
2023/05/08 07:39:39;;;;;;;13.23;6.30;;;;;;;15.95;100.00;99123.09;5056038;28;20191;-82
2023/05/08 07:42:24;;;;;;;10.50;6.28;;;;;;;15.89;100.00;99123.19;5053131;28;20039;-83
2023/05/08 07:45:12;;;;;;;9.88;6.03;;;;;;;16.03;100.00;99127.25;5054905;28;20051;-83
2023/05/08 07:47:57;;;;;;;11.57;6.13;;;;;;;16.09;100.00;99128.97;5055469;28;20044;-83
2023/05/08 07:50:41;;;;;;;12.88;6.40;;;;;;;15.96;100.00;99116.75;5056059;28;20127;-81
2023/05/08 07:53:26;;;;;;;14.90;6.70;;;;;;;15.80;100.00;99123.50;5052011;28;20444;-82
2023/05/08 07:56:10;;;;;;;8.95;6.05;;;;;;;15.90;100.00;99127.44;5056776;28;20102;-83
2023/05/08 07:58:54;;;;;;;14.75;6.93;;;;;;;16.05;100.00;99125.16;5054617;28;20398;-82
2023/05/08 08:01:38;;;;;;;12.73;7.20;;;;;;;16.17;100.00;99127.03;5058752;28;20059;-84
2023/05/08 08:04:22;;;;;;;13.60;6.80;;;;;;;16.24;100.00;99117.94;5054481;28;20044;-83
2023/05/08 08:07:06;;;;;;;14.25;6.45;;;;;;;16.17;100.00;99119.09;5055547;28;20044;-82
2023/05/08 08:09:50;;;;;;;10.00;6.13;;;;;;;16.35;100.00;99124.28;5059280;28;20042;-83
2023/05/08 08:12:34;;;;;;;7.57;6.00;;;;;;;16.23;100.00;99118.97;5058036;28;20120;-82
2023/05/08 08:15:18;;;;;;;8.98;6.22;;;;;;;16.29;100.00;99122.53;5055050;28;20051;-83
2023/05/08 08:18:02;;;;;;;12.68;6.00;;;;;;;16.23;100.00;99116.34;5051393;28;20078;-84
2023/05/08 08:20:46;;;;;;;13.00;5.97;;;;;;;16.25;100.00;99113.44;5052917;28;20043;-84
2023/05/08 08:23:30;;;;;;;11.18;6.55;;;;;;;16.44;100.00;99121.28;5060337;28;20422;-84
2023/05/08 08:26:15;;;;;;;12.25;5.70;;;;;;;16.17;100.00;99111.94;5059654;28;20572;-82
2023/05/08 08:28:59;;;;;;;9.45;6.07;;;;;;;16.11;100.00;99118.97;5059246;28;20059;-82
2023/05/08 08:31:43;;;;;;;10.13;6.07;;;;;;;16.18;100.00;99115.41;5060955;28;21174;-84
2023/05/08 08:34:28;;;;;;;12.57;6.55;;;;;;;16.34;100.00;99122.69;5060923;28;20171;-85
2023/05/08 08:37:12;;;;;;;12.68;5.78;;;;;;;16.25;100.00;99124.84;5065401;28;20047;-84
2023/05/08 08:39:56;;;;;;;8.50;5.35;;;;;;;15.97;100.00;99123.66;5062979;28;20406;-84
2023/05/08 08:42:40;;;;;;;16.63;5.53;;;;;;;16.03;100.00;99132.53;5057489;28;20453;-84
2023/05/08 08:45:25;;;;;;;8.02;5.05;;;;;;;16.10;100.00;99121.84;5061692;28;20040;-82
2023/05/08 08:48:12;;;;;;;9.95;5.80;;;;;;;16.00;100.00;99122.41;5063880;28;20546;-82
2023/05/08 08:51:01;;;;;;;6.60;4.70;;;;;;;16.01;100.00;99131.97;5066358;28;20051;-83
2023/05/08 08:53:49;;;;;;;8.45;4.95;;;;;;;16.15;100.00;99134.41;5059440;28;20060;-83
2023/05/08 08:56:36;;;;;;;7.88;4.97;;;;;;;16.13;100.00;99131.97;5062401;28;20139;-87
2023/05/08 08:59:24;;;;;;;7.55;5.32;;;;;;;16.27;100.00;99129.91;5061295;28;20545;-87
2023/05/08 09:02:10;;;;;;;8.77;5.75;;;;;;;16.12;100.00;99128.53;5063153;28;20048;-85
2023/05/08 09:04:55;;;;;;;8.55;5.95;;;;;;;16.38;100.00;99131.75;5061995;28;20097;-85
2023/05/08 09:07:40;;;;;;;6.38;5.63;;;;;;;16.34;100.00;99132.44;5058988;28;20199;-84
2023/05/08 09:10:24;;;;;;;11.70;5.60;;;;;;;16.42;100.00;99129.47;5066186;28;20127;-89
2023/05/08 09:13:08;;;;;;;9.30;5.28;;;;;;;16.54;100.00;99126.81;5060034;28;20105;-85
2023/05/08 09:15:52;;;;;;;8.10;5.35;;;;;;;16.72;100.00;99131.16;5065418;28;20504;-85
2023/05/08 09:18:36;;;;;;;10.18;6.03;;;;;;;16.63;100.00;99108.72;5066672;28;20059;-87
2023/05/08 09:21:22;;;;;;;6.75;5.38;;;;;;;16.65;100.00;99111.94;5061873;28;20048;-84
2023/05/08 09:24:06;;;;;;;8.02;5.57;;;;;;;16.75;100.00;99112.13;5063153;28;20048;-84
2023/05/08 09:26:50;;;;;;;6.85;5.20;;;;;;;16.63;100.00;99104.22;5057553;28;20101;-86
2023/05/08 09:29:33;;;;;;;8.60;5.30;;;;;;;17.01;100.00;99094.16;5060887;28;20078;-87
2023/05/08 09:32:18;;;;;;;7.63;5.32;;;;;;;17.25;100.00;99092.19;5057945;28;20043;-86
2023/05/08 09:35:02;;;;;;;5.65;5.03;;;;;;;17.36;100.00;99087.09;5060812;28;20044;-85
2023/05/08 09:37:47;;;;;;;7.80;5.28;;;;;;;17.43;100.00;99085.06;5060411;28;20515;-88
2023/05/08 09:40:31;;;;;;;9.55;5.43;;;;;;;17.41;100.00;99088.00;5061154;28;20094;-84
2023/05/08 09:43:15;;;;;;;6.80;5.05;;;;;;;17.54;100.00;99076.25;5066203;28;20047;-88
2023/05/08 09:46:21;;;;;;;5.63;4.60;;;;;;;17.58;100.00;99084.53;5063329;28;20508;-88
2023/05/08 09:49:05;;;;;;;10.07;4.97;;;;;;;17.61;100.00;99075.28;5060233;28;20189;-87
2023/05/08 09:51:53;;;;;;;4.65;4.10;;;;;;;17.50;100.00;99061.88;5061240;28;20163;-85
2023/05/08 09:54:44;;;;;;;5.45;4.50;;;;;;;17.46;100.00;99066.03;5061189;28;20090;-88
2023/05/08 09:57:31;;;;;;;9.70;5.05;;;;;;;17.32;100.00;99054.13;5065790;28;20520;-87
2023/05/08 10:00:15;;;;;;;6.43;3.88;;;;;;;17.64;100.00;99053.56;5061273;28;20051;-89
2023/05/08 10:03:01;;;;;;;6.07;4.47;;;;;;;17.50;100.00;99061.88;5062368;28;20043;-87
2023/05/08 10:05:47;;;;;;;5.95;3.65;;;;;;;17.71;100.00;99062.19;5065111;28;20051;-87
2023/05/08 10:08:31;;;;;;;4.57;3.28;;;;;;;17.70;100.00;99052.63;5066356;28;20051;-87
2023/05/08 10:11:20;;;;;;;5.40;3.00;;;;;;;18.10;100.00;99046.34;5061567;28;20044;-88
2023/05/08 10:14:05;;;;;;;4.28;3.58;;;;;;;18.00;100.00;99051.47;5065973;28;20094;-87
2023/05/08 10:16:51;;;;;;;5.03;3.65;;;;;;;18.18;100.00;99052.28;5068727;28;20044;-87
2023/05/08 10:19:43;;;;;;;4.03;2.88;;;;;;;18.51;100.00;99038.13;5055948;28;20052;-86
2023/05/08 10:22:29;;;;;;;5.63;2.72;;;;;;;18.95;100.00;99033.81;5062975;28;20047;-86
2023/05/08 10:25:19;;;;;;;6.93;2.53;;;;;;;18.81;100.00;99036.06;5062023;28;20505;-87
2023/05/08 10:28:18;;;;;;;4.15;2.80;;;;;;;19.15;100.00;99043.91;5063765;28;20553;-85
2023/05/08 10:31:05;;;;;;;4.00;2.70;;;;;;;19.12;100.00;99039.88;5064713;28;20551;-87
2023/05/08 10:33:52;;;;;;;5.50;3.00;;;;;;;19.49;100.00;99042.88;5071361;28;20040;-88
2023/05/08 10:36:36;;;;;;;5.47;3.08;;;;;;;20.07;100.00;99037.75;5068412;28;20040;-87
2023/05/08 10:39:21;;;;;;;2.65;2.08;;;;;;;19.80;100.00;99046.56;5057427;28;20094;-82
2023/05/08 10:42:08;;;;;;;3.50;2.67;;;;;;;20.40;100.00;99038.44;5060254;28;20043;-88
2023/05/08 10:44:53;;;;;;;2.45;2.25;;;;;;;20.50;100.00;99035.00;5060836;28;20046;-88
2023/05/08 10:47:56;;;;;;;2.78;2.40;;;;;;;21.12;100.00;99027.22;5067249;28;20090;-85
2023/05/08 10:50:53;;;;;;;4.05;2.40;;;;;;;;;;5054687;28;20047;-87
2023/05/08 10:54:05;;;;;;;4.43;3.08;;;;;;;21.16;100.00;99032.81;5063720;28;20393;-86
2023/05/08 10:57:05;;;;;;;2.70;2.50;;;;;;;21.68;100.00;99041.69;5062379;28;20044;-87
2023/05/08 10:59:50;;;;;;;2.78;2.55;;;;;;;21.88;100.00;99028.59;5057548;28;20035;-86
2023/05/08 11:02:36;;;;;;;3.10;2.80;;;;;;;21.49;100.00;99016.56;5060211;28;20094;-86
2023/05/08 11:05:22;;;;;;;3.63;3.15;;;;;;;21.25;100.00;99015.25;5062026;28;20078;-86
2023/05/08 11:08:14;;;;;;;3.65;3.35;;;;;;;21.44;100.00;99032.59;5062738;28;20040;-86
2023/05/08 11:10:58;;;;;;;3.55;3.25;;;;;;;21.26;100.00;99040.84;5060796;28;20094;-85
2023/05/08 11:13:49;;;;;;;3.00;2.80;;;;;;;21.59;100.00;99037.13;5062037;28;20520;-86
2023/05/08 11:17:01;;;;;;;3.13;2.83;;;;;;;21.83;100.00;99032.88;5061792;28;20082;-86
2023/05/08 11:20:04;;;;;;;2.58;2.38;;;;;;;21.46;100.00;99025.09;5060014;28;20071;-87
2023/05/08 11:22:48;;;;;;;3.33;2.60;;;;;;;21.64;100.00;99031.78;5055133;28;20044;-85
2023/05/08 11:25:43;;;;;;;2.55;2.35;;;;;;;21.86;100.00;99038.75;5058046;28;20094;-86
2023/05/08 11:28:30;;;;;;;2.88;2.67;;;;;;;21.40;100.00;99018.97;5060916;28;20128;-86
2023/05/08 11:31:15;;;;;;;2.85;2.65;;;;;;;21.39;100.00;99022.69;5063269;28;20040;-85
2023/05/08 11:33:59;;;;;;;3.45;3.15;;;;;;;21.11;100.00;99022.94;5059892;28;20171;-86
2023/05/08 11:37:02;;;;;;;4.00;3.28;;;;;;;20.71;100.00;99039.63;5062766;28;20148;-86
2023/05/08 11:39:50;;;;;;;4.20;3.90;;;;;;;20.08;100.00;99043.84;5056566;28;20044;-87
2023/05/08 11:42:36;;;;;;;5.03;4.63;;;;;;;19.89;100.00;99046.13;5062411;28;20040;-86
2023/05/08 11:45:21;;;;;;;4.65;4.25;;;;;;;19.75;100.00;99045.72;5063248;28;20047;-87
2023/05/08 11:48:05;;;;;;;5.10;4.60;;;;;;;19.66;100.00;99040.88;5060155;28;20099;-87
2023/05/08 11:50:50;;;;;;;5.03;4.53;;;;;;;19.89;100.00;99040.78;5062612;28;20040;-87
2023/05/08 11:53:36;;;;;;;5.53;5.13;;;;;;;19.92;100.00;99045.63;5060441;28;20070;-87
2023/05/08 11:56:21;;;;;;;5.63;5.22;;;;;;;19.70;100.00;99049.97;5063240;28;20075;-86
2023/05/08 11:59:07;;;;;;;4.97;4.55;;;;;;;19.35;100.00;99056.59;5057851;28;20399;-87
2023/05/08 12:01:51;;;;;;;5.40;5.00;;;;;;;19.09;100.00;99050.25;5060055;28;20035;-86
2023/05/08 12:04:45;;;;;;;5.75;5.15;;;;;;;19.02;100.00;99039.78;5059432;28;20488;-86
2023/05/08 12:07:30;;;;;;;4.95;4.55;;;;;;;19.32;100.00;99035.00;5061031;28;20083;-86
2023/05/08 12:10:15;;;;;;;5.25;4.75;;;;;;;19.38;100.00;99047.31;5064049;28;20048;-86
2023/05/08 12:12:59;;;;;;;5.00;4.60;;;;;;;19.17;100.00;99047.13;5061882;28;20092;-87
2023/05/08 12:15:43;;;;;;;7.07;4.45;;;;;;;19.14;100.00;99042.31;5064060;28;20528;-87
2023/05/08 12:18:29;;;;;;;5.50;4.70;;;;;;;19.12;100.00;99036.44;5059810;28;20035;-87
2023/05/08 12:21:14;;;;;;;5.50;5.00;;;;;;;18.86;100.00;99041.44;5058119;28;20087;-87
2023/05/08 12:23:59;;;;;;;4.65;4.25;;;;;;;19.05;100.00;99043.78;5058028;28;20448;-86
2023/05/08 12:26:45;;;;;;;5.53;5.03;;;;;;;19.43;100.00;99049.22;5061162;28;20106;-87
2023/05/08 12:29:29;;;;;;;7.50;5.93;;;;;;;19.24;100.00;99036.28;5062512;28;20043;-86
2023/05/08 12:32:13;;;;;;;6.32;5.72;;;;;;;19.06;100.00;99038.22;5057976;28;20056;-87
2023/05/08 12:34:58;;;;;;;6.97;6.38;;;;;;;18.64;100.00;99028.16;5058545;28;20047;-85
2023/05/08 12:37:44;;;;;;;7.80;6.28;;;;;;;18.83;100.00;99015.34;5059339;28;20414;-86
2023/05/08 12:40:31;;;;;;;7.20;6.50;;;;;;;18.98;100.00;99014.72;5063410;28;20067;-87
2023/05/08 12:43:16;;;;;;;5.72;5.22;;;;;;;19.03;100.00;99036.06;5058119;28;20075;-86
2023/05/08 12:46:03;;;;;;;6.47;5.80;;;;;;;18.93;100.00;99036.75;5058278;28;20060;-86
2023/05/08 12:48:47;;;;;;;5.95;5.45;;;;;;;18.65;100.00;98998.66;5059896;28;20071;-86
2023/05/08 12:51:32;;;;;;;9.02;6.15;;;;;;;19.22;100.00;99017.88;5060248;28;20102;-86
2023/05/08 12:54:16;;;;;;;6.10;5.50;;;;;;;19.24;100.00;99012.31;5059506;28;20110;-86
2023/05/08 12:57:00;;;;;;;7.72;6.00;;;;;;;19.30;100.00;99013.19;5058197;28;20052;-87